createdAt,value
2023-04-11T00:02:01.165Z,28.00
2023-04-11T00:05:04.392Z,27.80
2023-04-11T00:08:07.695Z,28.52
2023-04-11T00:11:10.879Z,25.38
2023-04-11T00:14:15.479Z,26.70
2023-04-11T00:17:18.300Z,26.67
2023-04-11T00:20:22.095Z,26.92
2023-04-11T00:23:25.114Z,25.85
2023-04-11T00:26:27.997Z,26.58
2023-04-11T00:29:30.984Z,25.63
2023-04-11T00:32:34.473Z,25.70
2023-04-11T00:35:39.628Z,27.95
2023-04-11T00:38:44.887Z,24.70
2023-04-11T00:41:47.999Z,28.05
2023-04-11T00:44:51.963Z,28.88
2023-04-11T00:47:55.241Z,27.23
2023-04-11T00:50:58.381Z,29.42
2023-04-11T00:54:01.838Z,27.70
2023-04-11T00:57:07.385Z,28.05
2023-04-11T01:00:12.352Z,28.13
2023-04-11T01:03:15.905Z,28.53
2023-04-11T01:06:20.967Z,26.80
2023-04-11T01:09:27.566Z,27.98
2023-04-11T01:12:30.944Z,27.50
2023-04-11T01:15:33.904Z,26.40
2023-04-11T01:18:37.162Z,26.93
2023-04-11T01:21:41.142Z,25.58
2023-04-11T01:24:45.378Z,28.27
2023-04-11T01:27:48.712Z,30.98
2023-04-11T01:30:52.201Z,30.63
2023-04-11T01:33:55.780Z,30.27
2023-04-11T01:36:58.977Z,29.02
2023-04-11T01:40:02.814Z,27.58
2023-04-11T01:43:08.346Z,28.58
2023-04-11T01:46:11.754Z,45.53
2023-04-11T01:49:15.807Z,42.77
2023-04-11T01:52:19.340Z,40.60
2023-04-11T01:55:22.317Z,41.53
2023-04-11T01:58:25.506Z,49.53
2023-04-11T02:01:28.718Z,48.50
2023-04-11T02:04:33.809Z,50.13
2023-04-11T02:07:37.768Z,46.35
2023-04-11T02:10:41.076Z,40.45
2023-04-11T02:13:45.141Z,40.10
2023-04-11T02:16:55.891Z,39.50
2023-04-11T02:19:59.000Z,37.33
2023-04-11T02:23:04.594Z,37.88
2023-04-11T02:26:07.648Z,34.88
2023-04-11T02:29:10.930Z,38.42
2023-04-11T02:32:14.290Z,37.05
2023-04-11T02:35:18.152Z,36.00
2023-04-11T02:38:21.399Z,36.17
2023-04-11T02:41:24.505Z,33.03
2023-04-11T02:44:29.574Z,32.92
2023-04-11T02:47:33.295Z,36.07
2023-04-11T02:50:41.324Z,36.03
2023-04-11T02:53:44.676Z,34.08
2023-04-11T02:56:49.157Z,32.08
2023-04-11T02:59:52.211Z,30.45
2023-04-11T03:03:03.340Z,30.95
2023-04-11T03:06:11.744Z,30.87
2023-04-11T03:09:17.677Z,34.08
2023-04-11T03:12:21.372Z,33.03
2023-04-11T03:15:32.605Z,32.85
2023-04-11T03:18:41.075Z,33.83
2023-04-11T03:21:53.455Z,31.37
2023-04-11T03:24:56.801Z,32.33
2023-04-11T03:28:00.937Z,35.15
2023-04-11T03:31:04.614Z,31.98
2023-04-11T03:34:07.867Z,43.35
2023-04-11T03:37:11.384Z,48.63
2023-04-11T03:40:15.281Z,51.38
2023-04-11T03:43:24.201Z,51.50
2023-04-11T03:46:28.335Z,49.55
2023-04-11T03:49:32.766Z,50.57
2023-04-11T03:52:36.488Z,50.83
2023-04-11T03:55:44.858Z,47.80
2023-04-11T03:58:51.769Z,41.75
2023-04-11T04:01:57.716Z,40.20
2023-04-11T04:05:01.734Z,34.03
2023-04-11T04:08:08.735Z,37.67
2023-04-11T04:11:18.919Z,38.53
2023-04-11T04:14:23.628Z,39.10
2023-04-11T04:17:27.644Z,37.92
2023-04-11T04:20:31.947Z,40.85
2023-04-11T04:23:36.481Z,38.13
2023-04-11T04:27:01.204Z,38.30
2023-04-11T04:30:23.001Z,37.30
2023-04-11T04:33:43.056Z,35.10
2023-04-11T04:40:54.994Z,98.73
2023-04-11T04:44:00.252Z,97.78
2023-04-11T04:47:31.497Z,87.07
2023-04-11T04:50:34.911Z,67.43
2023-04-11T04:53:39.049Z,42.33
2023-04-11T04:56:44.790Z,46.70
2023-04-11T04:59:49.021Z,43.20
2023-04-11T05:02:55.093Z,41.95
2023-04-11T05:06:01.080Z,38.83
2023-04-11T05:09:06.249Z,41.03
2023-04-11T05:12:10.115Z,46.23
2023-04-11T05:15:15.400Z,45.03
2023-04-11T05:18:18.999Z,46.95
2023-04-11T05:21:22.644Z,49.65
2023-04-11T05:24:28.128Z,44.17
2023-04-11T05:27:32.876Z,40.87
2023-04-11T05:30:36.355Z,40.75
2023-04-11T05:33:40.418Z,46.15
2023-04-11T05:36:43.513Z,33.08
2023-04-11T05:39:46.531Z,27.35
2023-04-11T05:42:49.425Z,28.50
2023-04-11T05:45:52.580Z,26.25
2023-04-11T05:48:58.072Z,28.08
2023-04-11T05:52:01.845Z,36.03
2023-04-11T05:55:06.157Z,25.05
2023-04-11T05:58:10.196Z,28.30
2023-04-11T06:01:14.621Z,29.55
2023-04-11T06:04:21.220Z,25.52
2023-04-11T06:07:24.509Z,26.83
2023-04-11T06:10:29.211Z,24.30
2023-04-11T06:13:32.412Z,26.57
2023-04-11T06:16:36.998Z,25.88
2023-04-11T06:19:39.962Z,24.85
2023-04-11T06:22:43.793Z,25.35
2023-04-11T06:25:46.825Z,27.58
2023-04-11T06:28:53.597Z,34.87
2023-04-11T06:31:59.183Z,30.83
2023-04-11T06:35:02.346Z,27.83
2023-04-11T06:38:05.539Z,26.90
2023-04-11T06:41:08.667Z,31.92
2023-04-11T06:44:11.932Z,32.53
2023-04-11T06:47:15.268Z,29.67
2023-04-11T06:50:19.202Z,26.83
2023-04-11T06:53:22.404Z,29.50
2023-04-11T06:56:26.079Z,25.27
2023-04-11T06:59:29.338Z,25.27
2023-04-11T07:02:35.805Z,22.20
2023-04-11T07:05:39.673Z,22.08
2023-04-11T07:08:43.895Z,23.30
2023-04-11T07:11:47.320Z,23.15
2023-04-11T07:14:50.569Z,24.73
2023-04-11T07:17:53.700Z,25.13
2023-04-11T07:20:57.510Z,24.33
2023-04-11T07:24:04.243Z,24.08
2023-04-11T07:27:07.836Z,22.33
2023-04-11T07:30:11.452Z,22.43
2023-04-11T07:33:15.048Z,24.77
2023-04-11T07:36:23.386Z,24.08
2023-04-11T07:39:27.402Z,23.27
2023-04-11T07:42:30.585Z,23.55
2023-04-11T07:45:34.459Z,22.50
2023-04-11T07:48:37.984Z,20.75
2023-04-11T07:51:41.541Z,23.08
2023-04-11T07:54:47.381Z,20.80
2023-04-11T07:57:50.640Z,20.73
2023-04-11T08:00:53.892Z,26.80
2023-04-11T08:03:57.822Z,25.88
2023-04-11T08:07:01.395Z,22.75
2023-04-11T08:10:05.734Z,21.63
2023-04-11T08:13:09.038Z,24.48
2023-04-11T08:16:15.570Z,23.13
2023-04-11T08:19:19.215Z,24.20
2023-04-11T08:22:22.755Z,23.52
2023-04-11T08:25:26.622Z,24.98
2023-04-11T08:28:30.321Z,24.65
2023-04-11T08:31:37.598Z,25.57
2023-04-11T08:34:40.657Z,23.42
2023-04-11T08:37:44.771Z,22.52
2023-04-11T08:40:48.063Z,22.52
2023-04-11T08:43:51.645Z,24.83
2023-04-11T08:46:54.761Z,23.03
2023-04-11T08:49:58.035Z,19.42
2023-04-11T08:53:03.262Z,19.42
2023-04-11T08:56:06.699Z,20.13
2023-04-11T08:59:09.889Z,18.83
2023-04-11T09:02:12.925Z,19.83
2023-04-11T09:09:29.132Z,18.88
2023-04-11T09:12:31.983Z,18.38
2023-04-11T09:15:34.965Z,17.05
2023-04-11T09:18:43.494Z,16.87
2023-04-11T09:21:50.657Z,20.50
2023-04-11T09:25:03.850Z,18.10
2023-04-11T09:28:09.423Z,19.95
2023-04-11T09:31:13.735Z,19.00
2023-04-11T09:34:26.404Z,17.33
2023-04-11T09:37:43.421Z,14.13
2023-04-11T09:40:46.393Z,15.45
2023-04-11T09:43:51.537Z,12.95
2023-04-11T09:46:59.460Z,14.20
2023-04-11T09:50:10.979Z,11.63
2023-04-11T09:53:28.099Z,9.15
2023-04-11T09:56:32.129Z,7.80
2023-04-11T09:59:39.231Z,9.63
2023-04-11T10:02:42.289Z,11.57
2023-04-11T10:05:45.768Z,12.40
2023-04-11T10:08:50.469Z,12.05
2023-04-11T10:11:53.276Z,9.38
2023-04-11T10:14:59.991Z,10.13
2023-04-11T10:18:13.074Z,9.07
2023-04-11T10:21:32.931Z,7.43
2023-04-11T10:24:36.262Z,9.27
2023-04-11T10:28:05.300Z,7.63
2023-04-11T10:31:13.376Z,7.45
2023-04-11T10:34:16.637Z,9.63
2023-04-11T10:37:35.255Z,7.87
2023-04-11T10:41:17.064Z,7.78
2023-04-11T10:44:21.278Z,7.68
2023-04-11T10:47:26.790Z,9.60
2023-04-11T10:50:30.275Z,8.35
2023-04-11T10:53:36.846Z,9.37
2023-04-11T10:56:42.654Z,7.35
2023-04-11T10:59:51.990Z,7.88
2023-04-11T11:02:56.029Z,8.20
2023-04-11T11:06:04.395Z,9.18
2023-04-11T11:09:28.647Z,7.07
2023-04-11T11:12:31.548Z,9.07
2023-04-11T11:16:00.448Z,9.30
2023-04-11T11:19:19.010Z,6.13
2023-04-11T11:22:28.788Z,8.60
2023-04-11T11:25:32.033Z,5.57
2023-04-11T11:28:46.689Z,6.22
2023-04-11T11:31:49.783Z,6.85
2023-04-11T11:34:55.809Z,7.07
2023-04-11T11:37:59.338Z,8.13
2023-04-11T11:41:03.239Z,7.10
2023-04-11T11:44:06.781Z,6.22
2023-04-11T11:47:15.582Z,6.82
2023-04-11T11:50:33.068Z,7.35
2023-04-11T11:53:35.969Z,6.07
2023-04-11T11:56:40.360Z,6.43
2023-04-11T11:59:43.482Z,7.13
2023-04-11T12:02:46.808Z,8.38
2023-04-11T12:05:51.680Z,5.65
2023-04-11T12:09:01.750Z,6.53
2023-04-11T12:15:26.702Z,6.13
2023-04-11T12:18:29.512Z,5.75
2023-04-11T12:21:32.430Z,4.80
2023-04-11T12:24:35.243Z,5.78
2023-04-11T12:27:39.898Z,7.53
2023-04-11T12:30:42.713Z,5.20
2023-04-11T12:33:45.485Z,6.22
2023-04-11T12:36:48.200Z,5.57
2023-04-11T12:39:50.881Z,7.05
2023-04-11T12:44:23.017Z,4.87
2023-04-11T12:46:18.933Z,9.80
2023-04-11T12:49:21.879Z,5.07
2023-04-11T12:52:25.643Z,6.43
2023-04-11T12:55:29.113Z,7.35
2023-04-11T12:58:33.187Z,6.33
2023-04-11T13:01:37.042Z,5.82
2023-04-11T13:04:40.215Z,6.72
2023-04-11T13:07:45.378Z,7.07
2023-04-11T13:10:48.489Z,7.88
2023-04-11T13:13:52.932Z,7.23
2023-04-11T13:16:56.001Z,7.28
2023-04-11T13:19:58.862Z,8.10
2023-04-11T13:23:01.811Z,6.40
2023-04-11T13:26:05.038Z,7.68
2023-04-11T13:29:08.310Z,6.13
2023-04-11T13:32:11.150Z,6.32
2023-04-11T13:35:14.718Z,6.40
2023-04-11T13:38:17.593Z,7.05
2023-04-11T13:41:21.072Z,8.10
2023-04-11T13:44:23.909Z,9.47
2023-04-11T13:47:26.799Z,11.38
2023-04-11T13:50:30.035Z,6.35
2023-04-11T13:53:32.944Z,7.88
2023-04-11T13:56:36.487Z,6.07
2023-04-11T13:59:40.655Z,5.30
2023-04-11T14:02:44.680Z,7.10
2023-04-11T14:05:48.002Z,5.15
2023-04-11T14:08:52.117Z,8.82
2023-04-11T14:11:55.015Z,8.40
2023-04-11T14:14:58.055Z,6.43
2023-04-11T14:18:01.924Z,7.10
2023-04-11T14:21:06.022Z,6.57
2023-04-11T14:24:09.392Z,8.48
2023-04-11T14:27:12.148Z,8.02
2023-04-11T14:30:15.070Z,7.37
2023-04-11T14:33:17.925Z,6.10
2023-04-11T14:36:20.797Z,6.28
2023-04-11T14:39:24.093Z,6.65
2023-04-11T14:42:27.469Z,5.18
2023-04-11T14:45:30.571Z,5.83
2023-04-11T14:48:33.599Z,8.02
2023-04-11T14:51:36.752Z,5.43
2023-04-11T14:54:39.939Z,5.75
2023-04-11T14:57:51.740Z,6.13
2023-04-11T15:00:56.008Z,5.50
2023-04-11T15:03:59.137Z,5.18
2023-04-11T15:07:02.665Z,6.03
2023-04-11T15:10:06.176Z,5.25
2023-04-11T15:13:09.269Z,6.28
2023-04-11T15:16:12.599Z,5.07
2023-04-11T15:19:15.639Z,7.22
2023-04-11T15:22:18.629Z,6.38
2023-04-11T15:25:21.545Z,8.18
2023-04-11T15:28:32.271Z,6.90
2023-04-11T15:31:36.635Z,9.00
2023-04-11T15:34:40.726Z,9.93
2023-04-11T15:37:43.609Z,9.65
2023-04-11T15:40:50.731Z,6.95
2023-04-11T15:43:53.755Z,8.25
2023-04-11T15:46:56.569Z,7.47
2023-04-11T15:50:02.240Z,9.23
2023-04-11T15:53:05.106Z,9.35
2023-04-11T15:56:08.756Z,8.85
2023-04-11T15:59:16.164Z,7.30
2023-04-11T16:02:23.549Z,7.93
2023-04-11T16:05:30.057Z,7.95
2023-04-11T16:08:33.092Z,8.90
2023-04-11T16:11:38.717Z,7.45
2023-04-11T16:14:41.446Z,6.35
2023-04-11T16:17:46.573Z,10.00
2023-04-11T16:20:49.519Z,8.77
2023-04-11T16:23:54.972Z,7.63
2023-04-11T16:26:58.657Z,10.20
2023-04-11T16:30:03.706Z,12.88
2023-04-11T16:33:08.117Z,9.27
2023-04-11T16:36:11.575Z,8.93
2023-04-11T16:39:14.525Z,9.10
2023-04-11T16:42:18.918Z,7.93
2023-04-11T16:45:21.760Z,7.50
2023-04-11T16:48:25.929Z,6.67
2023-04-11T16:51:28.703Z,15.23
2023-04-11T16:54:31.703Z,7.38
2023-04-11T16:57:35.187Z,6.45
2023-04-11T17:00:38.432Z,8.63
2023-04-11T17:03:42.410Z,5.07
2023-04-11T17:06:45.463Z,4.97
2023-04-11T17:09:49.361Z,5.20
2023-04-11T17:12:54.344Z,5.45
2023-04-11T17:15:57.058Z,4.35
2023-04-11T17:18:59.891Z,10.03
2023-04-11T17:22:02.849Z,8.23
2023-04-11T17:25:06.308Z,5.40
2023-04-11T17:28:09.622Z,5.95
2023-04-11T17:31:17.643Z,6.80
2023-04-11T17:34:20.777Z,9.90
2023-04-11T17:37:23.537Z,24.02
2023-04-11T17:40:26.813Z,25.23
2023-04-11T17:43:29.976Z,11.32
2023-04-11T17:46:32.893Z,6.10
2023-04-11T17:49:35.861Z,6.77
2023-04-11T17:52:43.664Z,6.60
2023-04-11T17:55:47.992Z,6.30
2023-04-11T17:58:51.093Z,5.00
2023-04-11T18:01:56.223Z,5.72
2023-04-11T18:04:59.359Z,5.80
2023-04-11T18:08:03.807Z,4.40
2023-04-11T18:11:06.619Z,5.25
2023-04-11T18:14:09.908Z,8.13
2023-04-11T18:17:12.814Z,2.30
2023-04-11T18:20:16.082Z,3.10
2023-04-11T18:23:18.829Z,5.07
2023-04-11T18:26:21.926Z,2.35
2023-04-11T18:29:24.867Z,2.65
2023-04-11T18:32:29.164Z,3.20
2023-04-11T18:35:32.154Z,3.20
2023-04-11T18:38:35.742Z,5.30
2023-04-11T18:41:38.590Z,4.78
2023-04-11T18:44:43.350Z,3.50
2023-04-11T18:47:46.949Z,3.33
2023-04-11T18:51:03.731Z,5.17
2023-04-11T18:54:06.849Z,5.22
2023-04-11T18:57:11.111Z,9.25
2023-04-11T19:00:18.491Z,5.45
2023-04-11T19:03:23.726Z,5.82
2023-04-11T19:06:27.744Z,5.43
2023-04-11T19:09:30.954Z,5.97
2023-04-11T19:12:34.898Z,7.72
2023-04-11T19:15:40.966Z,7.25
2023-04-11T19:18:43.785Z,8.23
2023-04-11T19:21:47.084Z,6.67
2023-04-11T19:24:50.142Z,5.47
2023-04-11T19:27:53.375Z,5.10
2023-04-11T19:30:56.651Z,6.80
2023-04-11T19:34:00.405Z,5.97
2023-04-11T19:37:03.720Z,4.90
2023-04-11T19:40:07.766Z,5.70
2023-04-11T19:43:10.979Z,4.32
2023-04-11T19:46:17.833Z,3.63
2023-04-11T19:49:21.049Z,4.32
2023-04-11T19:52:25.676Z,3.43
2023-04-11T19:55:29.389Z,3.65
2023-04-11T19:58:35.206Z,3.70
2023-04-11T20:01:38.318Z,5.78
2023-04-11T20:04:43.201Z,3.85
2023-04-11T20:07:47.050Z,3.37
2023-04-11T20:10:50.401Z,6.45
2023-04-11T20:13:53.524Z,3.53
2023-04-11T20:16:56.744Z,4.93
2023-04-11T20:19:59.885Z,5.35
2023-04-11T20:23:06.529Z,4.70
2023-04-11T20:26:09.288Z,3.90
2023-04-11T20:29:12.392Z,3.03
2023-04-11T20:32:15.289Z,4.93
2023-04-11T20:35:19.541Z,4.65
2023-04-11T20:38:22.908Z,4.03
2023-04-11T20:41:26.752Z,5.68
2023-04-11T20:44:29.581Z,10.20
2023-04-11T20:47:37.602Z,5.88
2023-04-11T20:50:42.041Z,4.88
2023-04-11T20:53:44.960Z,5.53
2023-04-11T20:56:47.710Z,5.00
2023-04-11T20:59:54.608Z,3.20
2023-04-11T21:02:57.573Z,5.20
2023-04-11T21:06:00.543Z,3.78
2023-04-11T21:09:06.501Z,3.83
2023-04-11T21:12:09.405Z,5.90
2023-04-11T21:15:12.258Z,7.57
2023-04-11T21:18:15.719Z,4.05
2023-04-11T21:21:18.722Z,5.40
2023-04-11T21:24:21.668Z,2.57
2023-04-11T21:27:24.703Z,4.90
2023-04-11T21:30:27.673Z,3.90
2023-04-11T21:33:30.490Z,4.35
2023-04-11T21:36:33.368Z,3.95
2023-04-11T21:39:36.486Z,3.83
2023-04-11T21:42:39.790Z,4.97
2023-04-11T21:45:42.546Z,3.60
2023-04-11T21:48:45.416Z,4.03
2023-04-11T21:51:48.382Z,2.50
2023-04-11T21:54:54.501Z,2.37
2023-04-11T21:57:57.666Z,5.53
2023-04-11T22:01:01.728Z,2.15
2023-04-11T22:04:05.251Z,1.90
2023-04-11T22:07:08.831Z,2.58
2023-04-11T22:10:12.312Z,2.90
2023-04-11T22:13:18.390Z,3.88
2023-04-11T22:16:32.956Z,3.95
2023-04-11T22:19:37.692Z,2.72
2023-04-11T22:27:54.572Z,2.53
2023-04-11T22:30:58.541Z,1.80
2023-04-11T22:34:04.860Z,1.77
2023-04-11T22:37:07.581Z,1.63
2023-04-11T22:40:15.630Z,1.33
2023-04-11T22:43:18.663Z,1.87
2023-04-11T22:46:21.645Z,1.88
2023-04-11T22:49:24.653Z,1.77
2023-04-11T22:52:30.232Z,2.17
2023-04-11T22:55:36.712Z,4.45
2023-04-11T22:58:39.970Z,2.20
2023-04-11T23:23:50.366Z,0.60
2023-04-11T23:26:53.200Z,0.55
2023-04-11T23:29:56.058Z,2.50
2023-04-11T23:33:00.019Z,0.85
2023-04-11T23:36:03.059Z,0.35
2023-04-11T23:39:06.209Z,0.30
2023-04-11T23:42:09.175Z,0.90
